sensor_id;sensor_type;location;lat;lon;timestamp;P1;durP1;ratioP1;P2;durP2;ratioP2
46290;SDS011;32023;44.444;26.006;2023-11-19T00:01:56;2.58;;;1.40;;
46290;SDS011;32023;44.444;26.006;2023-11-19T00:04:23;1.63;;;1.10;;
46290;SDS011;32023;44.444;26.006;2023-11-19T00:06:49;2.38;;;1.25;;
46290;SDS011;32023;44.444;26.006;2023-11-19T00:09:28;2.03;;;1.40;;
46290;SDS011;32023;44.444;26.006;2023-11-19T00:11:58;4.13;;;1.20;;
46290;SDS011;32023;44.444;26.006;2023-11-19T00:16:55;2.35;;;0.93;;
46290;SDS011;32023;44.444;26.006;2023-11-19T00:19:37;3.97;;;1.58;;
46290;SDS011;32023;44.444;26.006;2023-11-19T00:22:03;2.05;;;1.30;;
46290;SDS011;32023;44.444;26.006;2023-11-19T00:24:32;3.08;;;1.00;;
46290;SDS011;32023;44.444;26.006;2023-11-19T00:26:59;1.38;;;1.00;;
46290;SDS011;32023;44.444;26.006;2023-11-19T00:29:25;2.70;;;1.30;;
46290;SDS011;32023;44.444;26.006;2023-11-19T00:31:52;2.03;;;1.42;;
46290;SDS011;32023;44.444;26.006;2023-11-19T00:34:18;2.67;;;1.60;;
46290;SDS011;32023;44.444;26.006;2023-11-19T00:36:48;3.38;;;1.80;;
46290;SDS011;32023;44.444;26.006;2023-11-19T00:39:24;2.20;;;1.60;;
46290;SDS011;32023;44.444;26.006;2023-11-19T00:41:50;1.65;;;1.30;;
46290;SDS011;32023;44.444;26.006;2023-11-19T00:47:01;4.13;;;2.13;;
46290;SDS011;32023;44.444;26.006;2023-11-19T00:49:28;3.83;;;1.75;;
46290;SDS011;32023;44.444;26.006;2023-11-19T00:51:54;3.28;;;2.05;;
46290;SDS011;32023;44.444;26.006;2023-11-19T00:54:23;2.95;;;1.73;;
46290;SDS011;32023;44.444;26.006;2023-11-19T00:56:54;2.30;;;1.40;;
46290;SDS011;32023;44.444;26.006;2023-11-19T00:59:32;3.33;;;2.00;;
46290;SDS011;32023;44.444;26.006;2023-11-19T01:01:59;3.67;;;1.92;;
46290;SDS011;32023;44.444;26.006;2023-11-19T01:04:32;3.95;;;2.13;;
46290;SDS011;32023;44.444;26.006;2023-11-19T01:07:01;3.08;;;2.13;;
46290;SDS011;32023;44.444;26.006;2023-11-19T01:09:31;3.15;;;2.08;;
46290;SDS011;32023;44.444;26.006;2023-11-19T01:12:04;3.28;;;2.17;;
46290;SDS011;32023;44.444;26.006;2023-11-19T01:17:03;3.78;;;2.42;;
46290;SDS011;32023;44.444;26.006;2023-11-19T01:19:34;4.82;;;2.05;;
46290;SDS011;32023;44.444;26.006;2023-11-19T01:22:00;3.88;;;2.40;;
46290;SDS011;32023;44.444;26.006;2023-11-19T01:24:26;7.45;;;3.00;;
46290;SDS011;32023;44.444;26.006;2023-11-19T01:26:53;4.60;;;2.70;;
46290;SDS011;32023;44.444;26.006;2023-11-19T01:29:20;4.38;;;2.40;;
46290;SDS011;32023;44.444;26.006;2023-11-19T01:31:46;6.93;;;2.88;;
46290;SDS011;32023;44.444;26.006;2023-11-19T01:34:21;4.93;;;2.72;;
46290;SDS011;32023;44.444;26.006;2023-11-19T01:36:47;4.13;;;2.63;;
46290;SDS011;32023;44.444;26.006;2023-11-19T01:39:31;4.75;;;2.83;;
46290;SDS011;32023;44.444;26.006;2023-11-19T01:41:57;5.30;;;3.38;;
46290;SDS011;32023;44.444;26.006;2023-11-19T01:44:24;4.25;;;2.28;;
46290;SDS011;32023;44.444;26.006;2023-11-19T01:46:50;3.92;;;2.33;;
46290;SDS011;32023;44.444;26.006;2023-11-19T01:49:17;3.47;;;2.38;;
46290;SDS011;32023;44.444;26.006;2023-11-19T01:51:47;5.57;;;2.70;;
46290;SDS011;32023;44.444;26.006;2023-11-19T01:54:18;4.85;;;2.80;;
46290;SDS011;32023;44.444;26.006;2023-11-19T01:56:46;4.55;;;2.50;;
46290;SDS011;32023;44.444;26.006;2023-11-19T01:59:13;5.07;;;2.72;;
46290;SDS011;32023;44.444;26.006;2023-11-19T02:01:41;3.95;;;2.40;;
46290;SDS011;32023;44.444;26.006;2023-11-19T02:04:08;5.30;;;3.40;;
46290;SDS011;32023;44.444;26.006;2023-11-19T02:09:08;5.82;;;2.90;;
46290;SDS011;32023;44.444;26.006;2023-11-19T02:11:35;6.50;;;3.50;;
46290;SDS011;32023;44.444;26.006;2023-11-19T02:16:36;6.82;;;3.05;;
46290;SDS011;32023;44.444;26.006;2023-11-19T02:19:05;5.90;;;3.50;;
46290;SDS011;32023;44.444;26.006;2023-11-19T02:21:35;4.60;;;3.00;;
46290;SDS011;32023;44.444;26.006;2023-11-19T02:26:44;8.15;;;3.05;;
46290;SDS011;32023;44.444;26.006;2023-11-19T02:29:21;4.25;;;3.03;;
46290;SDS011;32023;44.444;26.006;2023-11-19T02:34:20;4.10;;;2.88;;
46290;SDS011;32023;44.444;26.006;2023-11-19T02:36:48;6.45;;;3.30;;
46290;SDS011;32023;44.444;26.006;2023-11-19T02:39:18;4.85;;;3.15;;
46290;SDS011;32023;44.444;26.006;2023-11-19T02:41:47;8.75;;;4.65;;
46290;SDS011;32023;44.444;26.006;2023-11-19T02:44:16;10.57;;;4.47;;
46290;SDS011;32023;44.444;26.006;2023-11-19T02:46:44;7.15;;;4.15;;
46290;SDS011;32023;44.444;26.006;2023-11-19T02:49:13;6.15;;;3.70;;
46290;SDS011;32023;44.444;26.006;2023-11-19T02:51:48;4.93;;;3.50;;
46290;SDS011;32023;44.444;26.006;2023-11-19T02:54:14;7.35;;;3.72;;
46290;SDS011;32023;44.444;26.006;2023-11-19T02:56:44;8.25;;;3.78;;
46290;SDS011;32023;44.444;26.006;2023-11-19T02:59:13;7.50;;;3.75;;
46290;SDS011;32023;44.444;26.006;2023-11-19T03:01:52;6.20;;;3.35;;
46290;SDS011;32023;44.444;26.006;2023-11-19T03:04:32;5.22;;;3.28;;
46290;SDS011;32023;44.444;26.006;2023-11-19T03:07:07;7.03;;;3.78;;
46290;SDS011;32023;44.444;26.006;2023-11-19T03:09:34;5.70;;;3.53;;
46290;SDS011;32023;44.444;26.006;2023-11-19T03:12:01;7.13;;;3.42;;
46290;SDS011;32023;44.444;26.006;2023-11-19T03:14:27;6.47;;;2.88;;
46290;SDS011;32023;44.444;26.006;2023-11-19T03:16:54;4.90;;;3.03;;
46290;SDS011;32023;44.444;26.006;2023-11-19T03:19:20;3.58;;;2.70;;
46290;SDS011;32023;44.444;26.006;2023-11-19T03:21:47;5.65;;;3.42;;
46290;SDS011;32023;44.444;26.006;2023-11-19T03:24:13;5.30;;;2.58;;
46290;SDS011;32023;44.444;26.006;2023-11-19T03:26:40;5.00;;;2.83;;
46290;SDS011;32023;44.444;26.006;2023-11-19T03:29:09;5.93;;;3.08;;
46290;SDS011;32023;44.444;26.006;2023-11-19T03:31:43;7.30;;;3.33;;
46290;SDS011;32023;44.444;26.006;2023-11-19T03:34:10;6.45;;;3.00;;
46290;SDS011;32023;44.444;26.006;2023-11-19T03:36:39;4.75;;;2.67;;
46290;SDS011;32023;44.444;26.006;2023-11-19T03:39:06;4.45;;;3.45;;
46290;SDS011;32023;44.444;26.006;2023-11-19T03:41:34;6.13;;;3.35;;
46290;SDS011;32023;44.444;26.006;2023-11-19T03:44:01;6.55;;;3.08;;
46290;SDS011;32023;44.444;26.006;2023-11-19T03:46:27;5.93;;;2.92;;
46290;SDS011;32023;44.444;26.006;2023-11-19T03:48:55;5.10;;;3.05;;
46290;SDS011;32023;44.444;26.006;2023-11-19T03:51:40;5.50;;;3.13;;
46290;SDS011;32023;44.444;26.006;2023-11-19T03:54:06;5.40;;;2.88;;
46290;SDS011;32023;44.444;26.006;2023-11-19T03:56:32;6.82;;;2.50;;
46290;SDS011;32023;44.444;26.006;2023-11-19T03:59:02;4.75;;;2.63;;
46290;SDS011;32023;44.444;26.006;2023-11-19T04:01:28;4.07;;;2.58;;
46290;SDS011;32023;44.444;26.006;2023-11-19T04:04:01;4.30;;;2.95;;
46290;SDS011;32023;44.444;26.006;2023-11-19T04:06:28;6.55;;;3.50;;
46290;SDS011;32023;44.444;26.006;2023-11-19T04:08:55;4.57;;;2.90;;
46290;SDS011;32023;44.444;26.006;2023-11-19T04:11:24;5.15;;;3.10;;
46290;SDS011;32023;44.444;26.006;2023-11-19T04:13:50;4.97;;;2.78;;
46290;SDS011;32023;44.444;26.006;2023-11-19T04:16:19;6.20;;;2.72;;
46290;SDS011;32023;44.444;26.006;2023-11-19T04:18:53;4.57;;;2.78;;
46290;SDS011;32023;44.444;26.006;2023-11-19T04:21:22;4.60;;;2.88;;
46290;SDS011;32023;44.444;26.006;2023-11-19T04:23:48;5.30;;;3.33;;
46290;SDS011;32023;44.444;26.006;2023-11-19T04:26:15;4.97;;;3.10;;
46290;SDS011;32023;44.444;26.006;2023-11-19T04:28:44;4.43;;;3.00;;
46290;SDS011;32023;44.444;26.006;2023-11-19T04:31:11;6.30;;;3.00;;
46290;SDS011;32023;44.444;26.006;2023-11-19T04:33:37;8.75;;;3.10;;
46290;SDS011;32023;44.444;26.006;2023-11-19T04:36:03;6.80;;;3.45;;
46290;SDS011;32023;44.444;26.006;2023-11-19T04:38:30;11.30;;;4.88;;
46290;SDS011;32023;44.444;26.006;2023-11-19T04:43:32;6.15;;;3.22;;
46290;SDS011;32023;44.444;26.006;2023-11-19T04:45:58;3.60;;;2.30;;
46290;SDS011;32023;44.444;26.006;2023-11-19T04:48:24;5.53;;;2.25;;
46290;SDS011;32023;44.444;26.006;2023-11-19T04:50:51;7.45;;;4.78;;
46290;SDS011;32023;44.444;26.006;2023-11-19T04:53:17;6.13;;;2.90;;
46290;SDS011;32023;44.444;26.006;2023-11-19T04:55:44;5.80;;;3.58;;
46290;SDS011;32023;44.444;26.006;2023-11-19T04:58:10;5.10;;;3.25;;
46290;SDS011;32023;44.444;26.006;2023-11-19T05:00:36;11.75;;;4.22;;
46290;SDS011;32023;44.444;26.006;2023-11-19T05:03:03;8.80;;;4.57;;
46290;SDS011;32023;44.444;26.006;2023-11-19T05:05:29;13.85;;;4.97;;
46290;SDS011;32023;44.444;26.006;2023-11-19T05:07:56;10.13;;;4.65;;
46290;SDS011;32023;44.444;26.006;2023-11-19T05:12:52;8.73;;;4.63;;
46290;SDS011;32023;44.444;26.006;2023-11-19T05:15:21;5.65;;;3.88;;
46290;SDS011;32023;44.444;26.006;2023-11-19T05:17:50;6.38;;;4.05;;
46290;SDS011;32023;44.444;26.006;2023-11-19T05:20:16;6.93;;;3.90;;
46290;SDS011;32023;44.444;26.006;2023-11-19T05:22:42;6.10;;;4.22;;
46290;SDS011;32023;44.444;26.006;2023-11-19T05:25:16;5.60;;;3.80;;
46290;SDS011;32023;44.444;26.006;2023-11-19T05:27:49;8.70;;;5.15;;
46290;SDS011;32023;44.444;26.006;2023-11-19T05:30:17;7.55;;;4.68;;
46290;SDS011;32023;44.444;26.006;2023-11-19T05:32:43;11.13;;;5.28;;
46290;SDS011;32023;44.444;26.006;2023-11-19T05:35:10;5.80;;;4.22;;
46290;SDS011;32023;44.444;26.006;2023-11-19T05:37:37;7.93;;;5.60;;
46290;SDS011;32023;44.444;26.006;2023-11-19T05:40:04;8.00;;;4.90;;
46290;SDS011;32023;44.444;26.006;2023-11-19T05:42:37;7.10;;;4.75;;
46290;SDS011;32023;44.444;26.006;2023-11-19T05:45:03;6.47;;;5.05;;
46290;SDS011;32023;44.444;26.006;2023-11-19T05:47:30;5.55;;;4.47;;
46290;SDS011;32023;44.444;26.006;2023-11-19T05:49:56;6.95;;;4.68;;
46290;SDS011;32023;44.444;26.006;2023-11-19T05:52:26;9.38;;;5.65;;
46290;SDS011;32023;44.444;26.006;2023-11-19T05:54:53;6.75;;;4.55;;
46290;SDS011;32023;44.444;26.006;2023-11-19T05:57:21;7.70;;;4.50;;
46290;SDS011;32023;44.444;26.006;2023-11-19T05:59:50;7.43;;;4.82;;
46290;SDS011;32023;44.444;26.006;2023-11-19T06:02:22;7.32;;;3.97;;
46290;SDS011;32023;44.444;26.006;2023-11-19T06:04:48;6.25;;;3.55;;
46290;SDS011;32023;44.444;26.006;2023-11-19T06:07:14;5.00;;;2.97;;
46290;SDS011;32023;44.444;26.006;2023-11-19T06:09:43;6.45;;;3.58;;
46290;SDS011;32023;44.444;26.006;2023-11-19T06:12:10;5.03;;;2.92;;
46290;SDS011;32023;44.444;26.006;2023-11-19T06:14:37;7.07;;;4.43;;
46290;SDS011;32023;44.444;26.006;2023-11-19T06:19:48;7.35;;;3.63;;
46290;SDS011;32023;44.444;26.006;2023-11-19T06:22:17;10.23;;;4.60;;
46290;SDS011;32023;44.444;26.006;2023-11-19T06:25:00;7.25;;;5.25;;
46290;SDS011;32023;44.444;26.006;2023-11-19T06:27:28;9.18;;;4.68;;
46290;SDS011;32023;44.444;26.006;2023-11-19T06:29:54;7.85;;;5.35;;
46290;SDS011;32023;44.444;26.006;2023-11-19T06:32:21;7.45;;;5.00;;
46290;SDS011;32023;44.444;26.006;2023-11-19T06:34:47;6.32;;;4.25;;
46290;SDS011;32023;44.444;26.006;2023-11-19T06:37:13;8.32;;;4.65;;
46290;SDS011;32023;44.444;26.006;2023-11-19T06:39:39;6.90;;;5.00;;
46290;SDS011;32023;44.444;26.006;2023-11-19T06:42:06;8.32;;;4.50;;
46290;SDS011;32023;44.444;26.006;2023-11-19T06:44:32;7.53;;;5.00;;
46290;SDS011;32023;44.444;26.006;2023-11-19T06:47:00;9.50;;;5.38;;
46290;SDS011;32023;44.444;26.006;2023-11-19T06:49:30;7.32;;;4.70;;
46290;SDS011;32023;44.444;26.006;2023-11-19T06:51:56;8.25;;;5.35;;
46290;SDS011;32023;44.444;26.006;2023-11-19T06:54:23;8.60;;;5.07;;
46290;SDS011;32023;44.444;26.006;2023-11-19T06:56:50;9.43;;;4.75;;
46290;SDS011;32023;44.444;26.006;2023-11-19T06:59:16;6.78;;;4.07;;
46290;SDS011;32023;44.444;26.006;2023-11-19T07:01:58;8.90;;;4.78;;
46290;SDS011;32023;44.444;26.006;2023-11-19T07:04:46;8.80;;;5.10;;
46290;SDS011;32023;44.444;26.006;2023-11-19T07:07:13;10.52;;;5.47;;
46290;SDS011;32023;44.444;26.006;2023-11-19T07:09:42;8.07;;;4.85;;
46290;SDS011;32023;44.444;26.006;2023-11-19T07:12:24;5.43;;;4.53;;
46290;SDS011;32023;44.444;26.006;2023-11-19T07:17:49;5.30;;;3.58;;
46290;SDS011;32023;44.444;26.006;2023-11-19T07:23:07;4.97;;;3.63;;
46290;SDS011;32023;44.444;26.006;2023-11-19T07:25:35;5.50;;;3.75;;
46290;SDS011;32023;44.444;26.006;2023-11-19T07:28:02;5.93;;;3.58;;
46290;SDS011;32023;44.444;26.006;2023-11-19T07:30:35;4.53;;;3.05;;
46290;SDS011;32023;44.444;26.006;2023-11-19T07:33:03;4.50;;;3.42;;
46290;SDS011;32023;44.444;26.006;2023-11-19T07:35:29;8.02;;;3.13;;
46290;SDS011;32023;44.444;26.006;2023-11-19T07:37:59;3.47;;;2.60;;
46290;SDS011;32023;44.444;26.006;2023-11-19T07:43:10;6.05;;;3.28;;
46290;SDS011;32023;44.444;26.006;2023-11-19T07:49:01;4.00;;;2.88;;
46290;SDS011;32023;44.444;26.006;2023-11-19T07:51:40;6.25;;;2.92;;
46290;SDS011;32023;44.444;26.006;2023-11-19T07:54:09;4.68;;;3.42;;
46290;SDS011;32023;44.444;26.006;2023-11-19T07:56:36;3.95;;;3.20;;
46290;SDS011;32023;44.444;26.006;2023-11-19T07:59:02;4.57;;;3.28;;
46290;SDS011;32023;44.444;26.006;2023-11-19T08:01:31;5.03;;;3.28;;
46290;SDS011;32023;44.444;26.006;2023-11-19T08:04:08;4.30;;;2.78;;
46290;SDS011;32023;44.444;26.006;2023-11-19T08:06:37;3.00;;;2.63;;
46290;SDS011;32023;44.444;26.006;2023-11-19T08:09:05;3.05;;;2.53;;
46290;SDS011;32023;44.444;26.006;2023-11-19T08:11:35;4.00;;;2.53;;
46290;SDS011;32023;44.444;26.006;2023-11-19T08:14:05;3.28;;;2.53;;
46290;SDS011;32023;44.444;26.006;2023-11-19T08:16:41;3.40;;;2.60;;
46290;SDS011;32023;44.444;26.006;2023-11-19T08:19:11;2.67;;;2.45;;
46290;SDS011;32023;44.444;26.006;2023-11-19T08:21:47;3.22;;;2.10;;
46290;SDS011;32023;44.444;26.006;2023-11-19T08:24:16;2.97;;;2.25;;
46290;SDS011;32023;44.444;26.006;2023-11-19T08:26:43;3.60;;;2.65;;
46290;SDS011;32023;44.444;26.006;2023-11-19T08:29:09;4.25;;;2.38;;
46290;SDS011;32023;44.444;26.006;2023-11-19T08:34:41;3.40;;;2.40;;
46290;SDS011;32023;44.444;26.006;2023-11-19T08:37:12;3.63;;;2.08;;
46290;SDS011;32023;44.444;26.006;2023-11-19T08:39:57;3.63;;;2.25;;
46290;SDS011;32023;44.444;26.006;2023-11-19T08:42:26;3.85;;;2.08;;
46290;SDS011;32023;44.444;26.006;2023-11-19T08:45:01;2.53;;;1.67;;
46290;SDS011;32023;44.444;26.006;2023-11-19T08:47:40;2.03;;;1.75;;
46290;SDS011;32023;44.444;26.006;2023-11-19T08:50:06;2.67;;;2.00;;
46290;SDS011;32023;44.444;26.006;2023-11-19T08:52:37;3.08;;;1.60;;
46290;SDS011;32023;44.444;26.006;2023-11-19T08:55:08;3.25;;;2.00;;
46290;SDS011;32023;44.444;26.006;2023-11-19T08:57:55;3.08;;;1.90;;
46290;SDS011;32023;44.444;26.006;2023-11-19T09:00:31;3.65;;;2.20;;
46290;SDS011;32023;44.444;26.006;2023-11-19T09:03:11;2.85;;;2.00;;
46290;SDS011;32023;44.444;26.006;2023-11-19T09:05:37;3.70;;;1.90;;
46290;SDS011;32023;44.444;26.006;2023-11-19T09:08:06;2.85;;;2.10;;
46290;SDS011;32023;44.444;26.006;2023-11-19T09:10:36;2.10;;;1.80;;
46290;SDS011;32023;44.444;26.006;2023-11-19T09:13:07;3.05;;;1.95;;
46290;SDS011;32023;44.444;26.006;2023-11-19T09:15:48;3.63;;;1.50;;
46290;SDS011;32023;44.444;26.006;2023-11-19T09:21:12;1.92;;;1.38;;
46290;SDS011;32023;44.444;26.006;2023-11-19T09:23:39;2.22;;;1.67;;
46290;SDS011;32023;44.444;26.006;2023-11-19T09:28:53;3.22;;;2.63;;
46290;SDS011;32023;44.444;26.006;2023-11-19T09:31:20;5.70;;;2.30;;
46290;SDS011;32023;44.444;26.006;2023-11-19T09:34:06;2.72;;;2.53;;
46290;SDS011;32023;44.444;26.006;2023-11-19T09:36:53;2.00;;;1.90;;
46290;SDS011;32023;44.444;26.006;2023-11-19T09:39:38;2.85;;;2.22;;
46290;SDS011;32023;44.444;26.006;2023-11-19T09:45:30;2.17;;;2.00;;
46290;SDS011;32023;44.444;26.006;2023-11-19T09:48:27;2.92;;;2.72;;
46290;SDS011;32023;44.444;26.006;2023-11-19T09:51:03;2.53;;;2.33;;
46290;SDS011;32023;44.444;26.006;2023-11-19T09:53:36;2.08;;;1.88;;
46290;SDS011;32023;44.444;26.006;2023-11-19T09:56:18;2.28;;;2.08;;
46290;SDS011;32023;44.444;26.006;2023-11-19T09:58:54;2.50;;;2.30;;
46290;SDS011;32023;44.444;26.006;2023-11-19T10:01:26;2.10;;;1.95;;
46290;SDS011;32023;44.444;26.006;2023-11-19T10:03:57;1.92;;;1.83;;
46290;SDS011;32023;44.444;26.006;2023-11-19T10:06:24;2.70;;;1.83;;
46290;SDS011;32023;44.444;26.006;2023-11-19T10:08:58;2.30;;;2.20;;
46290;SDS011;32023;44.444;26.006;2023-11-19T10:11:30;1.92;;;1.83;;
46290;SDS011;32023;44.444;26.006;2023-11-19T10:14:02;2.00;;;1.90;;
46290;SDS011;32023;44.444;26.006;2023-11-19T10:16:31;1.83;;;1.73;;
46290;SDS011;32023;44.444;26.006;2023-11-19T10:19:20;1.70;;;1.60;;
46290;SDS011;32023;44.444;26.006;2023-11-19T10:28:15;3.80;;;2.08;;
46290;SDS011;32023;44.444;26.006;2023-11-19T10:30:50;2.00;;;1.90;;
46290;SDS011;32023;44.444;26.006;2023-11-19T10:33:30;2.28;;;2.10;;
46290;SDS011;32023;44.444;26.006;2023-11-19T10:36:08;1.80;;;1.70;;
46290;SDS011;32023;44.444;26.006;2023-11-19T10:39:06;2.35;;;1.80;;
46290;SDS011;32023;44.444;26.006;2023-11-19T10:41:36;2.05;;;1.60;;
46290;SDS011;32023;44.444;26.006;2023-11-19T10:44:03;1.70;;;1.60;;
46290;SDS011;32023;44.444;26.006;2023-11-19T10:49:56;2.33;;;1.77;;
46290;SDS011;32023;44.444;26.006;2023-11-19T10:52:26;2.35;;;2.15;;
46290;SDS011;32023;44.444;26.006;2023-11-19T10:55:03;1.90;;;1.80;;
46290;SDS011;32023;44.444;26.006;2023-11-19T10:57:34;3.53;;;1.67;;
46290;SDS011;32023;44.444;26.006;2023-11-19T11:00:07;2.50;;;2.30;;
46290;SDS011;32023;44.444;26.006;2023-11-19T11:02:40;1.90;;;1.80;;
46290;SDS011;32023;44.444;26.006;2023-11-19T11:05:12;2.42;;;1.90;;
46290;SDS011;32023;44.444;26.006;2023-11-19T11:07:41;1.70;;;1.52;;
46290;SDS011;32023;44.444;26.006;2023-11-19T11:10:11;3.97;;;1.83;;
46290;SDS011;32023;44.444;26.006;2023-11-19T11:13:03;1.70;;;1.60;;
46290;SDS011;32023;44.444;26.006;2023-11-19T11:15:38;3.15;;;2.33;;
46290;SDS011;32023;44.444;26.006;2023-11-19T11:18:08;1.60;;;1.50;;
46290;SDS011;32023;44.444;26.006;2023-11-19T11:20:37;1.92;;;1.83;;
46290;SDS011;32023;44.444;26.006;2023-11-19T11:26:26;2.22;;;1.88;;
46290;SDS011;32023;44.444;26.006;2023-11-19T11:29:24;3.20;;;1.77;;
46290;SDS011;32023;44.444;26.006;2023-11-19T11:35:17;1.70;;;1.60;;
46290;SDS011;32023;44.444;26.006;2023-11-19T11:38:06;2.08;;;1.90;;
46290;SDS011;32023;44.444;26.006;2023-11-19T11:40:41;1.63;;;1.52;;
46290;SDS011;32023;44.444;26.006;2023-11-19T11:43:46;1.77;;;1.67;;
46290;SDS011;32023;44.444;26.006;2023-11-19T11:49:03;2.53;;;2.22;;
46290;SDS011;32023;44.444;26.006;2023-11-19T11:54:31;24.97;;;21.33;;
46290;SDS011;32023;44.444;26.006;2023-11-19T11:59:48;4.97;;;3.00;;
46290;SDS011;32023;44.444;26.006;2023-11-19T12:04:54;1.70;;;1.60;;
46290;SDS011;32023;44.444;26.006;2023-11-19T12:07:33;1.88;;;1.50;;
46290;SDS011;32023;44.444;26.006;2023-11-19T12:10:11;1.85;;;1.70;;
46290;SDS011;32023;44.444;26.006;2023-11-19T12:19:16;2.60;;;1.90;;
46290;SDS011;32023;44.444;26.006;2023-11-19T12:21:52;1.65;;;1.55;;
46290;SDS011;32023;44.444;26.006;2023-11-19T12:24:34;2.70;;;1.50;;
46290;SDS011;32023;44.444;26.006;2023-11-19T12:27:51;1.98;;;1.77;;
46290;SDS011;32023;44.444;26.006;2023-11-19T12:34:17;2.35;;;1.80;;
46290;SDS011;32023;44.444;26.006;2023-11-19T12:43:02;2.40;;;1.95;;
46290;SDS011;32023;44.444;26.006;2023-11-19T12:45:41;1.85;;;1.63;;
46290;SDS011;32023;44.444;26.006;2023-11-19T12:48:26;2.10;;;1.70;;
46290;SDS011;32023;44.444;26.006;2023-11-19T12:56:34;2.55;;;2.00;;
46290;SDS011;32023;44.444;26.006;2023-11-19T12:59:20;3.47;;;2.40;;
46290;SDS011;32023;44.444;26.006;2023-11-19T13:02:01;3.58;;;2.75;;
46290;SDS011;32023;44.444;26.006;2023-11-19T13:11:44;4.25;;;1.70;;
46290;SDS011;32023;44.444;26.006;2023-11-19T13:14:35;1.92;;;1.67;;
46290;SDS011;32023;44.444;26.006;2023-11-19T13:31:39;4.45;;;2.10;;
46290;SDS011;32023;44.444;26.006;2023-11-19T13:35:01;5.13;;;2.22;;
46290;SDS011;32023;44.444;26.006;2023-11-19T13:37:29;3.70;;;2.33;;
46290;SDS011;32023;44.444;26.006;2023-11-19T13:40:08;4.47;;;2.35;;
46290;SDS011;32023;44.444;26.006;2023-11-19T13:45:19;6.05;;;2.47;;
46290;SDS011;32023;44.444;26.006;2023-11-19T13:48:04;4.43;;;2.13;;
46290;SDS011;32023;44.444;26.006;2023-11-19T13:50:32;3.90;;;2.25;;
46290;SDS011;32023;44.444;26.006;2023-11-19T13:53:23;5.63;;;2.15;;
46290;SDS011;32023;44.444;26.006;2023-11-19T13:56:05;3.15;;;2.00;;
46290;SDS011;32023;44.444;26.006;2023-11-19T13:58:43;3.53;;;2.38;;
46290;SDS011;32023;44.444;26.006;2023-11-19T14:01:10;3.80;;;2.53;;
46290;SDS011;32023;44.444;26.006;2023-11-19T14:03:37;7.20;;;2.85;;
46290;SDS011;32023;44.444;26.006;2023-11-19T14:06:13;3.78;;;2.50;;
46290;SDS011;32023;44.444;26.006;2023-11-19T14:08:44;4.95;;;3.08;;
46290;SDS011;32023;44.444;26.006;2023-11-19T14:11:19;3.75;;;2.42;;
46290;SDS011;32023;44.444;26.006;2023-11-19T14:13:49;5.22;;;3.33;;
46290;SDS011;32023;44.444;26.006;2023-11-19T14:19:21;3.90;;;2.70;;
46290;SDS011;32023;44.444;26.006;2023-11-19T14:21:54;4.38;;;2.67;;
46290;SDS011;32023;44.444;26.006;2023-11-19T14:24:24;4.32;;;3.08;;
46290;SDS011;32023;44.444;26.006;2023-11-19T14:26:51;8.27;;;3.33;;
46290;SDS011;32023;44.444;26.006;2023-11-19T14:29:28;9.85;;;5.03;;
46290;SDS011;32023;44.444;26.006;2023-11-19T14:32:02;7.07;;;4.50;;
46290;SDS011;32023;44.444;26.006;2023-11-19T14:34:30;8.82;;;4.75;;
46290;SDS011;32023;44.444;26.006;2023-11-19T14:36:57;6.63;;;4.32;;
46290;SDS011;32023;44.444;26.006;2023-11-19T14:39:28;8.40;;;5.18;;
46290;SDS011;32023;44.444;26.006;2023-11-19T14:42:01;10.23;;;5.45;;
46290;SDS011;32023;44.444;26.006;2023-11-19T14:44:30;10.93;;;6.90;;
46290;SDS011;32023;44.444;26.006;2023-11-19T14:46:56;9.13;;;6.40;;
46290;SDS011;32023;44.444;26.006;2023-11-19T14:49:23;9.68;;;5.70;;
46290;SDS011;32023;44.444;26.006;2023-11-19T14:54:43;10.50;;;5.88;;
46290;SDS011;32023;44.444;26.006;2023-11-19T14:57:09;7.13;;;4.90;;
46290;SDS011;32023;44.444;26.006;2023-11-19T14:59:36;5.75;;;4.57;;
46290;SDS011;32023;44.444;26.006;2023-11-19T15:02:03;8.55;;;4.95;;
46290;SDS011;32023;44.444;26.006;2023-11-19T15:04:30;11.02;;;5.75;;
46290;SDS011;32023;44.444;26.006;2023-11-19T15:06:59;17.90;;;8.45;;
46290;SDS011;32023;44.444;26.006;2023-11-19T15:09:26;18.75;;;8.48;;
46290;SDS011;32023;44.444;26.006;2023-11-19T15:11:56;17.05;;;8.65;;
46290;SDS011;32023;44.444;26.006;2023-11-19T15:14:34;12.15;;;7.20;;
46290;SDS011;32023;44.444;26.006;2023-11-19T15:17:07;15.77;;;7.55;;
46290;SDS011;32023;44.444;26.006;2023-11-19T15:19:37;17.23;;;8.43;;
46290;SDS011;32023;44.444;26.006;2023-11-19T15:22:25;11.15;;;7.78;;
46290;SDS011;32023;44.444;26.006;2023-11-19T15:24:54;17.10;;;7.90;;
46290;SDS011;32023;44.444;26.006;2023-11-19T15:27:48;11.82;;;7.20;;
46290;SDS011;32023;44.444;26.006;2023-11-19T15:30:25;13.23;;;7.47;;
46290;SDS011;32023;44.444;26.006;2023-11-19T15:33:03;13.95;;;8.23;;
46290;SDS011;32023;44.444;26.006;2023-11-19T15:35:32;15.68;;;7.88;;
46290;SDS011;32023;44.444;26.006;2023-11-19T15:38:01;23.08;;;11.35;;
46290;SDS011;32023;44.444;26.006;2023-11-19T15:40:27;40.80;;;29.10;;
46290;SDS011;32023;44.444;26.006;2023-11-19T15:43:07;20.10;;;13.90;;
46290;SDS011;32023;44.444;26.006;2023-11-19T15:45:39;21.75;;;13.73;;
46290;SDS011;32023;44.444;26.006;2023-11-19T15:48:05;17.67;;;11.05;;
46290;SDS011;32023;44.444;26.006;2023-11-19T15:50:32;18.38;;;11.15;;
46290;SDS011;32023;44.444;26.006;2023-11-19T15:52:58;19.15;;;10.43;;
46290;SDS011;32023;44.444;26.006;2023-11-19T15:55:24;14.35;;;8.13;;
46290;SDS011;32023;44.444;26.006;2023-11-19T15:57:51;16.65;;;9.43;;
46290;SDS011;32023;44.444;26.006;2023-11-19T16:00:17;19.23;;;8.38;;
46290;SDS011;32023;44.444;26.006;2023-11-19T16:02:46;10.45;;;6.43;;
46290;SDS011;32023;44.444;26.006;2023-11-19T16:05:16;17.23;;;8.15;;
46290;SDS011;32023;44.444;26.006;2023-11-19T16:07:48;14.35;;;8.45;;
46290;SDS011;32023;44.444;26.006;2023-11-19T16:10:16;20.35;;;11.45;;
46290;SDS011;32023;44.444;26.006;2023-11-19T16:12:45;17.52;;;11.23;;
46290;SDS011;32023;44.444;26.006;2023-11-19T16:15:12;18.60;;;11.98;;
46290;SDS011;32023;44.444;26.006;2023-11-19T16:17:46;17.92;;;12.25;;
46290;SDS011;32023;44.444;26.006;2023-11-19T16:20:13;19.85;;;12.20;;
46290;SDS011;32023;44.444;26.006;2023-11-19T16:22:41;18.55;;;11.45;;
46290;SDS011;32023;44.444;26.006;2023-11-19T16:25:18;19.35;;;12.93;;
46290;SDS011;32023;44.444;26.006;2023-11-19T16:27:53;33.60;;;15.77;;
46290;SDS011;32023;44.444;26.006;2023-11-19T16:30:25;44.75;;;22.13;;
46290;SDS011;32023;44.444;26.006;2023-11-19T16:33:05;33.08;;;17.35;;
46290;SDS011;32023;44.444;26.006;2023-11-19T16:35:47;28.35;;;16.45;;
46290;SDS011;32023;44.444;26.006;2023-11-19T16:38:13;30.08;;;15.57;;
46290;SDS011;32023;44.444;26.006;2023-11-19T16:40:42;27.67;;;13.98;;
46290;SDS011;32023;44.444;26.006;2023-11-19T16:43:15;21.77;;;13.50;;
46290;SDS011;32023;44.444;26.006;2023-11-19T16:45:49;20.65;;;12.18;;
46290;SDS011;32023;44.444;26.006;2023-11-19T16:48:16;18.50;;;12.00;;
46290;SDS011;32023;44.444;26.006;2023-11-19T16:50:42;22.15;;;12.38;;
46290;SDS011;32023;44.444;26.006;2023-11-19T16:53:11;22.05;;;14.40;;
46290;SDS011;32023;44.444;26.006;2023-11-19T16:55:45;25.05;;;14.02;;
46290;SDS011;32023;44.444;26.006;2023-11-19T17:00:57;24.00;;;14.48;;
46290;SDS011;32023;44.444;26.006;2023-11-19T17:03:23;25.05;;;12.88;;
46290;SDS011;32023;44.444;26.006;2023-11-19T17:08:39;21.65;;;13.50;;
46290;SDS011;32023;44.444;26.006;2023-11-19T17:14:35;23.85;;;14.63;;